sensor_id;sensor_type;location;lat;lon;timestamp;temperature;humidity
13796;SHT30;40911;51.552;9.874;2023-03-20T00:01:09;10.61;94.96
13796;SHT30;40911;51.552;9.874;2023-03-20T00:03:32;10.72;94.14
13796;SHT30;40911;51.552;9.874;2023-03-20T00:05:54;10.57;94.80
13796;SHT30;40911;51.552;9.874;2023-03-20T00:08:16;10.36;96.38
13796;SHT30;40911;51.552;9.874;2023-03-20T00:10:40;10.23;96.65
13796;SHT30;40911;51.552;9.874;2023-03-20T00:13:05;10.37;95.95
13796;SHT30;40911;51.552;9.874;2023-03-20T00:15:29;10.26;96.72
13796;SHT30;40911;51.552;9.874;2023-03-20T00:17:51;10.40;95.28
13796;SHT30;40911;51.552;9.874;2023-03-20T00:20:14;10.52;94.44
13796;SHT30;40911;51.552;9.874;2023-03-20T00:22:36;10.48;94.77
13796;SHT30;40911;51.552;9.874;2023-03-20T00:24:58;10.31;95.77
13796;SHT30;40911;51.552;9.874;2023-03-20T00:27:20;10.41;95.10
13796;SHT30;40911;51.552;9.874;2023-03-20T00:29:43;10.38;94.95
13796;SHT30;40911;51.552;9.874;2023-03-20T00:32:08;10.38;94.84
13796;SHT30;40911;51.552;9.874;2023-03-20T00:34:32;10.37;94.73
13796;SHT30;40911;51.552;9.874;2023-03-20T00:36:54;10.21;95.63
13796;SHT30;40911;51.552;9.874;2023-03-20T00:39:17;10.05;96.59
13796;SHT30;40911;51.552;9.874;2023-03-20T00:41:41;10.28;95.08
13796;SHT30;40911;51.552;9.874;2023-03-20T00:44:18;10.41;94.45
13796;SHT30;40911;51.552;9.874;2023-03-20T00:46:42;10.31;94.37
13796;SHT30;40911;51.552;9.874;2023-03-20T00:49:08;10.38;94.21
13796;SHT30;40911;51.552;9.874;2023-03-20T00:51:31;10.24;94.70
13796;SHT30;40911;51.552;9.874;2023-03-20T00:53:52;10.31;94.39
13796;SHT30;40911;51.552;9.874;2023-03-20T00:56:29;10.28;94.54
13796;SHT30;40911;51.552;9.874;2023-03-20T00:58:52;10.30;94.37
13796;SHT30;40911;51.552;9.874;2023-03-20T01:01:14;10.31;94.53
13796;SHT30;40911;51.552;9.874;2023-03-20T01:03:36;10.38;94.16
13796;SHT30;40911;51.552;9.874;2023-03-20T01:05:58;10.31;94.55
13796;SHT30;40911;51.552;9.874;2023-03-20T01:08:22;10.31;94.34
13796;SHT30;40911;51.552;9.874;2023-03-20T01:10:45;10.05;95.46
13796;SHT30;40911;51.552;9.874;2023-03-20T01:13:14;9.86;96.26
13796;SHT30;40911;51.552;9.874;2023-03-20T01:15:38;9.72;96.91
13796;SHT30;40911;51.552;9.874;2023-03-20T01:18:00;9.75;96.98
13796;SHT30;40911;51.552;9.874;2023-03-20T01:20:25;9.63;97.32
13796;SHT30;40911;51.552;9.874;2023-03-20T01:22:47;9.73;96.89
13796;SHT30;40911;51.552;9.874;2023-03-20T01:25:09;9.72;97.07
13796;SHT30;40911;51.552;9.874;2023-03-20T01:27:31;9.73;96.34
13796;SHT30;40911;51.552;9.874;2023-03-20T01:29:53;9.66;97.05
13796;SHT30;40911;51.552;9.874;2023-03-20T01:32:17;9.81;96.00
13796;SHT30;40911;51.552;9.874;2023-03-20T01:34:38;9.95;95.27
13796;SHT30;40911;51.552;9.874;2023-03-20T01:37:01;9.82;95.58
13796;SHT30;40911;51.552;9.874;2023-03-20T01:39:27;9.81;96.02
13796;SHT30;40911;51.552;9.874;2023-03-20T01:41:51;9.83;95.55
13796;SHT30;40911;51.552;9.874;2023-03-20T01:44:19;9.59;96.85
13796;SHT30;40911;51.552;9.874;2023-03-20T01:46:41;9.86;95.75
13796;SHT30;40911;51.552;9.874;2023-03-20T01:49:06;9.70;96.29
13796;SHT30;40911;51.552;9.874;2023-03-20T01:51:29;9.79;95.71
13796;SHT30;40911;51.552;9.874;2023-03-20T01:53:55;9.95;94.91
13796;SHT30;40911;51.552;9.874;2023-03-20T01:56:18;9.92;95.55
13796;SHT30;40911;51.552;9.874;2023-03-20T01:58:43;9.86;95.59
13796;SHT30;40911;51.552;9.874;2023-03-20T02:01:07;9.90;95.55
13796;SHT30;40911;51.552;9.874;2023-03-20T02:03:30;10.00;94.80
13796;SHT30;40911;51.552;9.874;2023-03-20T02:05:53;9.93;95.25
13796;SHT30;40911;51.552;9.874;2023-03-20T02:08:21;10.02;94.77
13796;SHT30;40911;51.552;9.874;2023-03-20T02:10:46;9.63;96.16
13796;SHT30;40911;51.552;9.874;2023-03-20T02:13:10;9.81;95.73
13796;SHT30;40911;51.552;9.874;2023-03-20T02:15:33;9.90;95.44
13796;SHT30;40911;51.552;9.874;2023-03-20T02:17:56;10.06;94.63
13796;SHT30;40911;51.552;9.874;2023-03-20T02:20:27;9.93;95.13
13796;SHT30;40911;51.552;9.874;2023-03-20T02:25:59;9.92;95.42
13796;SHT30;40911;51.552;9.874;2023-03-20T02:34:56;9.97;95.75
13796;SHT30;40911;51.552;9.874;2023-03-20T02:38:02;9.95;95.67
13796;SHT30;40911;51.552;9.874;2023-03-20T02:40:32;10.06;95.31
13796;SHT30;40911;51.552;9.874;2023-03-20T02:42:57;10.03;95.17
13796;SHT30;40911;51.552;9.874;2023-03-20T02:45:26;9.97;95.41
13796;SHT30;40911;51.552;9.874;2023-03-20T02:47:53;10.02;95.13
13796;SHT30;40911;51.552;9.874;2023-03-20T02:50:18;10.02;95.39
13796;SHT30;40911;51.552;9.874;2023-03-20T02:52:48;10.12;95.10
13796;SHT30;40911;51.552;9.874;2023-03-20T02:55:17;10.13;95.10
13796;SHT30;40911;51.552;9.874;2023-03-20T02:57:46;10.10;95.48
13796;SHT30;40911;51.552;9.874;2023-03-20T03:00:14;10.09;95.79
13796;SHT30;40911;51.552;9.874;2023-03-20T03:02:38;10.06;95.95
13796;SHT30;40911;51.552;9.874;2023-03-20T03:05:03;10.05;96.00
13796;SHT30;40911;51.552;9.874;2023-03-20T03:07:29;10.09;95.51
13796;SHT30;40911;51.552;9.874;2023-03-20T03:09:54;10.10;95.33
13796;SHT30;40911;51.552;9.874;2023-03-20T03:12:20;10.12;95.38
13796;SHT30;40911;51.552;9.874;2023-03-20T03:14:45;10.14;95.21
13796;SHT30;40911;51.552;9.874;2023-03-20T03:17:09;10.13;95.15
13796;SHT30;40911;51.552;9.874;2023-03-20T03:19:32;10.16;94.84
13796;SHT30;40911;51.552;9.874;2023-03-20T03:21:55;10.16;94.88
13796;SHT30;40911;51.552;9.874;2023-03-20T03:24:22;10.14;94.89
13796;SHT30;40911;51.552;9.874;2023-03-20T03:26:48;10.09;94.61
13796;SHT30;40911;51.552;9.874;2023-03-20T03:29:14;10.12;94.07
13796;SHT30;40911;51.552;9.874;2023-03-20T03:31:37;10.05;93.15
13796;SHT30;40911;51.552;9.874;2023-03-20T03:34:00;10.05;92.99
13796;SHT30;40911;51.552;9.874;2023-03-20T03:36:30;9.95;92.49
13796;SHT30;40911;51.552;9.874;2023-03-20T03:38:57;10.00;92.33
13796;SHT30;40911;51.552;9.874;2023-03-20T03:41:24;9.93;92.22
13796;SHT30;40911;51.552;9.874;2023-03-20T03:43:54;9.93;92.20
13796;SHT30;40911;51.552;9.874;2023-03-20T03:46:24;9.86;92.04
13796;SHT30;40911;51.552;9.874;2023-03-20T03:48:50;9.89;91.96
13796;SHT30;40911;51.552;9.874;2023-03-20T03:51:15;9.92;91.81
13796;SHT30;40911;51.552;9.874;2023-03-20T03:53:40;9.89;91.92
13796;SHT30;40911;51.552;9.874;2023-03-20T03:56:05;9.81;92.04
13796;SHT30;40911;51.552;9.874;2023-03-20T03:58:30;9.83;92.23
13796;SHT30;40911;51.552;9.874;2023-03-20T04:00:56;9.79;91.96
13796;SHT30;40911;51.552;9.874;2023-03-20T04:03:23;9.76;92.29
13796;SHT30;40911;51.552;9.874;2023-03-20T04:05:46;9.69;92.44
13796;SHT30;40911;51.552;9.874;2023-03-20T04:08:09;9.62;92.26
13796;SHT30;40911;51.552;9.874;2023-03-20T04:10:30;9.59;92.13
13796;SHT30;40911;51.552;9.874;2023-03-20T04:12:52;9.55;91.99
13796;SHT30;40911;51.552;9.874;2023-03-20T04:15:14;9.48;92.05
13796;SHT30;40911;51.552;9.874;2023-03-20T04:17:36;9.40;91.97
13796;SHT30;40911;51.552;9.874;2023-03-20T04:19:59;9.48;92.16
13796;SHT30;40911;51.552;9.874;2023-03-20T04:22:21;9.47;92.05
13796;SHT30;40911;51.552;9.874;2023-03-20T04:24:43;9.45;91.97
13796;SHT30;40911;51.552;9.874;2023-03-20T04:27:04;9.37;92.10
13796;SHT30;40911;51.552;9.874;2023-03-20T04:29:26;9.30;92.12
13796;SHT30;40911;51.552;9.874;2023-03-20T04:31:48;9.28;92.36
13796;SHT30;40911;51.552;9.874;2023-03-20T04:34:09;9.27;92.61
13796;SHT30;40911;51.552;9.874;2023-03-20T04:36:32;9.20;93.15
13796;SHT30;40911;51.552;9.874;2023-03-20T04:38:54;9.17;93.52
13796;SHT30;40911;51.552;9.874;2023-03-20T04:41:15;9.17;93.69
13796;SHT30;40911;51.552;9.874;2023-03-20T04:43:40;9.09;94.21
13796;SHT30;40911;51.552;9.874;2023-03-20T04:46:04;9.11;94.21
13796;SHT30;40911;51.552;9.874;2023-03-20T04:48:25;9.07;94.22
13796;SHT30;40911;51.552;9.874;2023-03-20T04:50:48;9.09;94.07
13796;SHT30;40911;51.552;9.874;2023-03-20T04:53:11;9.09;94.08
13796;SHT30;40911;51.552;9.874;2023-03-20T04:55:33;9.07;93.96
13796;SHT30;40911;51.552;9.874;2023-03-20T04:57:54;9.19;93.93
13796;SHT30;40911;51.552;9.874;2023-03-20T05:00:17;9.13;93.89
13796;SHT30;40911;51.552;9.874;2023-03-20T05:02:39;9.19;93.65
13796;SHT30;40911;51.552;9.874;2023-03-20T05:05:00;9.23;93.68
13796;SHT30;40911;51.552;9.874;2023-03-20T05:07:22;9.11;94.54
13796;SHT30;40911;51.552;9.874;2023-03-20T05:09:45;9.10;94.62
13796;SHT30;40911;51.552;9.874;2023-03-20T05:12:07;9.04;95.02
13796;SHT30;40911;51.552;9.874;2023-03-20T05:14:29;8.89;95.43
13796;SHT30;40911;51.552;9.874;2023-03-20T05:16:51;9.16;94.58
13796;SHT30;40911;51.552;9.874;2023-03-20T05:19:12;9.06;95.36
13796;SHT30;40911;51.552;9.874;2023-03-20T05:21:34;9.06;95.46
13796;SHT30;40911;51.552;9.874;2023-03-20T05:23:56;8.99;96.13
13796;SHT30;40911;51.552;9.874;2023-03-20T05:26:19;8.99;95.86
13796;SHT30;40911;51.552;9.874;2023-03-20T05:28:40;9.04;95.79
13796;SHT30;40911;51.552;9.874;2023-03-20T05:31:02;9.00;95.79
13796;SHT30;40911;51.552;9.874;2023-03-20T05:33:23;8.96;96.13
13796;SHT30;40911;51.552;9.874;2023-03-20T05:35:45;9.19;94.95
13796;SHT30;40911;51.552;9.874;2023-03-20T05:38:07;9.07;95.32
13796;SHT30;40911;51.552;9.874;2023-03-20T05:40:28;8.92;95.95
13796;SHT30;40911;51.552;9.874;2023-03-20T05:42:51;9.00;95.71
13796;SHT30;40911;51.552;9.874;2023-03-20T05:45:13;9.09;95.41
13796;SHT30;40911;51.552;9.874;2023-03-20T05:47:35;8.96;96.02
13796;SHT30;40911;51.552;9.874;2023-03-20T05:49:56;8.97;95.96
13796;SHT30;40911;51.552;9.874;2023-03-20T05:52:18;8.96;95.97
13796;SHT30;40911;51.552;9.874;2023-03-20T05:54:40;8.83;96.45
13796;SHT30;40911;51.552;9.874;2023-03-20T05:57:01;8.83;96.32
13796;SHT30;40911;51.552;9.874;2023-03-20T05:59:24;8.89;96.17
13796;SHT30;40911;51.552;9.874;2023-03-20T06:01:46;8.90;96.46
13796;SHT30;40911;51.552;9.874;2023-03-20T06:04:07;8.85;96.36
13796;SHT30;40911;51.552;9.874;2023-03-20T06:06:29;9.02;96.00
13796;SHT30;40911;51.552;9.874;2023-03-20T06:08:50;8.96;96.01
13796;SHT30;40911;51.552;9.874;2023-03-20T06:11:12;8.99;96.04
13796;SHT30;40911;51.552;9.874;2023-03-20T06:13:35;8.99;96.27
13796;SHT30;40911;51.552;9.874;2023-03-20T06:15:58;9.31;95.46
13796;SHT30;40911;51.552;9.874;2023-03-20T06:18:20;9.24;95.19
13796;SHT30;40911;51.552;9.874;2023-03-20T06:20:41;9.41;94.87
13796;SHT30;40911;51.552;9.874;2023-03-20T06:23:03;9.54;94.60
13796;SHT30;40911;51.552;9.874;2023-03-20T06:25:25;9.51;94.95
13796;SHT30;40911;51.552;9.874;2023-03-20T06:27:47;9.57;94.68
13796;SHT30;40911;51.552;9.874;2023-03-20T06:30:10;9.40;94.94
13796;SHT30;40911;51.552;9.874;2023-03-20T06:32:33;9.27;95.65
13796;SHT30;40911;51.552;9.874;2023-03-20T06:34:54;9.26;95.70
13796;SHT30;40911;51.552;9.874;2023-03-20T06:37:17;9.28;95.49
13796;SHT30;40911;51.552;9.874;2023-03-20T06:39:39;9.28;95.26
13796;SHT30;40911;51.552;9.874;2023-03-20T06:42:01;9.34;94.92
13796;SHT30;40911;51.552;9.874;2023-03-20T06:44:23;9.34;94.83
13796;SHT30;40911;51.552;9.874;2023-03-20T06:46:46;9.27;94.92
13796;SHT30;40911;51.552;9.874;2023-03-20T06:49:09;9.27;95.02
13796;SHT30;40911;51.552;9.874;2023-03-20T06:51:30;9.17;95.44
13796;SHT30;40911;51.552;9.874;2023-03-20T06:53:52;9.26;95.38
13796;SHT30;40911;51.552;9.874;2023-03-20T06:56:14;9.32;95.13
13796;SHT30;40911;51.552;9.874;2023-03-20T06:58:36;9.26;95.04
13796;SHT30;40911;51.552;9.874;2023-03-20T07:00:58;9.20;95.51
13796;SHT30;40911;51.552;9.874;2023-03-20T07:03:19;9.09;96.35
13796;SHT30;40911;51.552;9.874;2023-03-20T07:05:42;9.13;96.62
13796;SHT30;40911;51.552;9.874;2023-03-20T07:08:04;9.17;96.68
13796;SHT30;40911;51.552;9.874;2023-03-20T07:10:26;9.34;95.91
13796;SHT30;40911;51.552;9.874;2023-03-20T07:12:48;9.48;95.45
13796;SHT30;40911;51.552;9.874;2023-03-20T07:15:11;9.57;94.99
13796;SHT30;40911;51.552;9.874;2023-03-20T07:17:32;9.62;95.02
13796;SHT30;40911;51.552;9.874;2023-03-20T07:19:54;9.65;95.20
13796;SHT30;40911;51.552;9.874;2023-03-20T07:22:19;9.42;95.93
13796;SHT30;40911;51.552;9.874;2023-03-20T07:24:41;9.51;95.49
13796;SHT30;40911;51.552;9.874;2023-03-20T07:27:02;9.40;96.12
13796;SHT30;40911;51.552;9.874;2023-03-20T07:29:24;9.44;95.64
13796;SHT30;40911;51.552;9.874;2023-03-20T07:31:45;9.51;95.36
13796;SHT30;40911;51.552;9.874;2023-03-20T07:34:07;9.38;95.36
13796;SHT30;40911;51.552;9.874;2023-03-20T07:36:29;9.37;94.97
13796;SHT30;40911;51.552;9.874;2023-03-20T07:38:52;9.34;95.02
13796;SHT30;40911;51.552;9.874;2023-03-20T07:41:14;9.30;95.27
13796;SHT30;40911;51.552;9.874;2023-03-20T07:43:36;9.28;95.08
13796;SHT30;40911;51.552;9.874;2023-03-20T07:45:57;9.14;95.27
13796;SHT30;40911;51.552;9.874;2023-03-20T07:48:21;9.26;95.00
13796;SHT30;40911;51.552;9.874;2023-03-20T07:50:43;9.27;94.49
13796;SHT30;40911;51.552;9.874;2023-03-20T07:53:05;9.34;94.36
13796;SHT30;40911;51.552;9.874;2023-03-20T07:55:28;9.34;94.01
13796;SHT30;40911;51.552;9.874;2023-03-20T07:57:50;9.32;94.23
13796;SHT30;40911;51.552;9.874;2023-03-20T08:00:13;9.34;93.84
13796;SHT30;40911;51.552;9.874;2023-03-20T08:02:34;9.37;93.95
13796;SHT30;40911;51.552;9.874;2023-03-20T08:04:56;9.32;93.89
13796;SHT30;40911;51.552;9.874;2023-03-20T08:07:18;9.32;93.74
13796;SHT30;40911;51.552;9.874;2023-03-20T08:09:39;9.37;93.35
13796;SHT30;40911;51.552;9.874;2023-03-20T08:12:02;9.32;93.47
13796;SHT30;40911;51.552;9.874;2023-03-20T08:14:24;9.32;93.19
13796;SHT30;40911;51.552;9.874;2023-03-20T08:16:46;9.35;93.53
13796;SHT30;40911;51.552;9.874;2023-03-20T08:19:08;9.35;93.31
13796;SHT30;40911;51.552;9.874;2023-03-20T08:21:31;9.41;92.95
13796;SHT30;40911;51.552;9.874;2023-03-20T08:23:52;9.44;92.79
13796;SHT30;40911;51.552;9.874;2023-03-20T08:26:14;9.54;92.78
13796;SHT30;40911;51.552;9.874;2023-03-20T08:28:37;9.55;92.78
13796;SHT30;40911;51.552;9.874;2023-03-20T08:30:59;9.55;93.21
13796;SHT30;40911;51.552;9.874;2023-03-20T08:33:21;9.49;93.54
13796;SHT30;40911;51.552;9.874;2023-03-20T08:35:43;9.28;93.20
13796;SHT30;40911;51.552;9.874;2023-03-20T08:38:05;9.42;93.42
13796;SHT30;40911;51.552;9.874;2023-03-20T08:40:26;9.63;92.95
13796;SHT30;40911;51.552;9.874;2023-03-20T08:42:48;9.65;93.02
13796;SHT30;40911;51.552;9.874;2023-03-20T08:45:11;9.65;93.11
13796;SHT30;40911;51.552;9.874;2023-03-20T08:47:33;9.49;93.12
13796;SHT30;40911;51.552;9.874;2023-03-20T08:49:55;9.68;93.34
13796;SHT30;40911;51.552;9.874;2023-03-20T08:52:16;9.55;93.29
13796;SHT30;40911;51.552;9.874;2023-03-20T08:54:38;9.55;93.45
13796;SHT30;40911;51.552;9.874;2023-03-20T08:57:00;9.66;92.91
13796;SHT30;40911;51.552;9.874;2023-03-20T08:59:21;9.69;93.03
13796;SHT30;40911;51.552;9.874;2023-03-20T09:01:44;9.66;93.04
13796;SHT30;40911;51.552;9.874;2023-03-20T09:04:06;9.69;92.88
13796;SHT30;40911;51.552;9.874;2023-03-20T09:06:28;9.57;93.35
13796;SHT30;40911;51.552;9.874;2023-03-20T09:08:50;9.63;93.00
13796;SHT30;40911;51.552;9.874;2023-03-20T09:11:12;9.57;92.90
13796;SHT30;40911;51.552;9.874;2023-03-20T09:13:34;9.55;93.39
13796;SHT30;40911;51.552;9.874;2023-03-20T09:15:56;9.78;92.95
13796;SHT30;40911;51.552;9.874;2023-03-20T09:18:19;9.73;92.47
13796;SHT30;40911;51.552;9.874;2023-03-20T09:20:41;9.70;92.40
13796;SHT30;40911;51.552;9.874;2023-03-20T09:23:02;9.72;92.10
13796;SHT30;40911;51.552;9.874;2023-03-20T09:25:24;9.70;92.26
13796;SHT30;40911;51.552;9.874;2023-03-20T09:27:46;9.73;92.24
13796;SHT30;40911;51.552;9.874;2023-03-20T09:30:12;9.68;92.29
13796;SHT30;40911;51.552;9.874;2023-03-20T09:32:34;9.66;92.29
13796;SHT30;40911;51.552;9.874;2023-03-20T09:34:57;9.89;92.05
13796;SHT30;40911;51.552;9.874;2023-03-20T09:37:19;10.03;92.23
13796;SHT30;40911;51.552;9.874;2023-03-20T09:39:41;9.97;92.62
13796;SHT30;40911;51.552;9.874;2023-03-20T09:42:07;10.02;92.13
13796;SHT30;40911;51.552;9.874;2023-03-20T09:44:41;9.96;91.51
13796;SHT30;40911;51.552;9.874;2023-03-20T09:47:14;10.10;91.63
13796;SHT30;40911;51.552;9.874;2023-03-20T09:49:42;10.18;91.30
13796;SHT30;40911;51.552;9.874;2023-03-20T09:52:17;10.20;91.71
13796;SHT30;40911;51.552;9.874;2023-03-20T09:54:42;10.12;91.12
13796;SHT30;40911;51.552;9.874;2023-03-20T09:57:04;10.09;91.43
13796;SHT30;40911;51.552;9.874;2023-03-20T09:59:27;9.95;90.87
13796;SHT30;40911;51.552;9.874;2023-03-20T10:01:52;9.97;91.00
13796;SHT30;40911;51.552;9.874;2023-03-20T10:04:16;10.14;90.77
13796;SHT30;40911;51.552;9.874;2023-03-20T10:06:37;10.23;90.48
13796;SHT30;40911;51.552;9.874;2023-03-20T10:09:01;10.28;90.39
13796;SHT30;40911;51.552;9.874;2023-03-20T10:11:43;10.42;90.38
13796;SHT30;40911;51.552;9.874;2023-03-20T10:14:17;10.38;90.49
13796;SHT30;40911;51.552;9.874;2023-03-20T10:16:52;10.41;90.19
13796;SHT30;40911;51.552;9.874;2023-03-20T10:19:20;10.27;89.88
13796;SHT30;40911;51.552;9.874;2023-03-20T10:21:44;10.21;89.91
13796;SHT30;40911;51.552;9.874;2023-03-20T10:24:12;10.18;89.67
13796;SHT30;40911;51.552;9.874;2023-03-20T10:26:38;10.20;89.41
13796;SHT30;40911;51.552;9.874;2023-03-20T10:29:02;10.23;89.52
13796;SHT30;40911;51.552;9.874;2023-03-20T10:31:35;10.05;88.46
13796;SHT30;40911;51.552;9.874;2023-03-20T10:34:09;10.12;88.66
13796;SHT30;40911;51.552;9.874;2023-03-20T10:36:48;10.07;88.43
13796;SHT30;40911;51.552;9.874;2023-03-20T10:39:18;10.03;88.23
13796;SHT30;40911;51.552;9.874;2023-03-20T10:41:45;9.95;87.90
13796;SHT30;40911;51.552;9.874;2023-03-20T10:44:14;9.88;87.57
13796;SHT30;40911;51.552;9.874;2023-03-20T10:46:40;9.85;88.18
13796;SHT30;40911;51.552;9.874;2023-03-20T10:49:06;9.93;87.96
13796;SHT30;40911;51.552;9.874;2023-03-20T10:51:37;9.96;87.63
13796;SHT30;40911;51.552;9.874;2023-03-20T10:54:01;9.93;87.15
13796;SHT30;40911;51.552;9.874;2023-03-20T10:56:31;10.03;86.97
13796;SHT30;40911;51.552;9.874;2023-03-20T10:58:58;9.99;86.19
13796;SHT30;40911;51.552;9.874;2023-03-20T11:01:21;9.92;85.86
13796;SHT30;40911;51.552;9.874;2023-03-20T11:03:43;10.02;86.20
13796;SHT30;40911;51.552;9.874;2023-03-20T11:06:09;10.06;85.73
13796;SHT30;40911;51.552;9.874;2023-03-20T11:08:34;10.07;85.33
13796;SHT30;40911;51.552;9.874;2023-03-20T11:10:59;10.21;85.10
13796;SHT30;40911;51.552;9.874;2023-03-20T11:13:26;10.17;83.98
13796;SHT30;40911;51.552;9.874;2023-03-20T11:15:50;10.48;84.58
13796;SHT30;40911;51.552;9.874;2023-03-20T11:18:14;10.74;83.49
13796;SHT30;40911;51.552;9.874;2023-03-20T11:20:38;10.78;82.80
13796;SHT30;40911;51.552;9.874;2023-03-20T11:23:02;11.39;82.78
13796;SHT30;40911;51.552;9.874;2023-03-20T11:32:22;11.88;79.18
13796;SHT30;40911;51.552;9.874;2023-03-20T11:34:49;12.00;78.49
13796;SHT30;40911;51.552;9.874;2023-03-20T11:37:21;11.58;79.39
13796;SHT30;40911;51.552;9.874;2023-03-20T11:39:53;11.54;79.97
13796;SHT30;40911;51.552;9.874;2023-03-20T11:42:24;11.43;79.68
13796;SHT30;40911;51.552;9.874;2023-03-20T11:44:56;11.67;78.67
13796;SHT30;40911;51.552;9.874;2023-03-20T11:47:21;11.68;78.53
13796;SHT30;40911;51.552;9.874;2023-03-20T11:49:46;11.60;78.72
13796;SHT30;40911;51.552;9.874;2023-03-20T11:52:12;11.99;79.24
13796;SHT30;40911;51.552;9.874;2023-03-20T11:54:34;12.03;78.25
13796;SHT30;40911;51.552;9.874;2023-03-20T11:56:58;12.02;77.96
13796;SHT30;40911;51.552;9.874;2023-03-20T11:59:20;12.22;76.85
13796;SHT30;40911;51.552;9.874;2023-03-20T12:01:44;12.33;76.95
13796;SHT30;40911;51.552;9.874;2023-03-20T12:04:10;12.27;76.19
13796;SHT30;40911;51.552;9.874;2023-03-20T12:06:40;12.23;76.97
13796;SHT30;40911;51.552;9.874;2023-03-20T12:09:06;12.20;76.44
13796;SHT30;40911;51.552;9.874;2023-03-20T12:11:42;12.60;76.87
13796;SHT30;40911;51.552;9.874;2023-03-20T12:14:12;12.41;75.70
13796;SHT30;40911;51.552;9.874;2023-03-20T12:16:36;12.40;75.61
13796;SHT30;40911;51.552;9.874;2023-03-20T12:19:00;12.74;76.58
13796;SHT30;40911;51.552;9.874;2023-03-20T12:21:28;12.79;74.87
13796;SHT30;40911;51.552;9.874;2023-03-20T12:23:55;12.93;74.81
13796;SHT30;40911;51.552;9.874;2023-03-20T12:26:20;12.85;74.79
13796;SHT30;40911;51.552;9.874;2023-03-20T12:28:49;13.67;75.02
13796;SHT30;40911;51.552;9.874;2023-03-20T12:31:24;13.33;74.14
13796;SHT30;40911;51.552;9.874;2023-03-20T12:33:48;13.37;74.00
13796;SHT30;40911;51.552;9.874;2023-03-20T12:36:14;13.34;73.53
13796;SHT30;40911;51.552;9.874;2023-03-20T12:38:38;13.19;73.52
13796;SHT30;40911;51.552;9.874;2023-03-20T12:41:09;13.36;73.72
13796;SHT30;40911;51.552;9.874;2023-03-20T12:43:39;13.13;74.58
13796;SHT30;40911;51.552;9.874;2023-03-20T12:46:08;13.15;73.79
13796;SHT30;40911;51.552;9.874;2023-03-20T12:48:45;12.95;73.24
13796;SHT30;40911;51.552;9.874;2023-03-20T12:51:14;12.96;74.91
13796;SHT30;40911;51.552;9.874;2023-03-20T12:53:46;13.23;74.13
13796;SHT30;40911;51.552;9.874;2023-03-20T12:56:20;12.86;74.97
13796;SHT30;40911;51.552;9.874;2023-03-20T12:58:49;12.99;74.47
13796;SHT30;40911;51.552;9.874;2023-03-20T13:01:18;13.08;74.45
13796;SHT30;40911;51.552;9.874;2023-03-20T13:04:18;13.13;73.70
13796;SHT30;40911;51.552;9.874;2023-03-20T13:06:50;13.48;73.14
13796;SHT30;40911;51.552;9.874;2023-03-20T13:09:41;13.46;73.01
13796;SHT30;40911;51.552;9.874;2023-03-20T13:12:11;12.99;72.85
13796;SHT30;40911;51.552;9.874;2023-03-20T13:14:40;13.05;73.39
13796;SHT30;40911;51.552;9.874;2023-03-20T13:17:15;13.15;73.77
13796;SHT30;40911;51.552;9.874;2023-03-20T13:19:41;12.91;72.94
13796;SHT30;40911;51.552;9.874;2023-03-20T13:22:15;13.19;73.05
13796;SHT30;40911;51.552;9.874;2023-03-20T13:24:42;13.19;72.86
13796;SHT30;40911;51.552;9.874;2023-03-20T13:27:16;12.76;73.60
13796;SHT30;40911;51.552;9.874;2023-03-20T13:29:45;12.93;72.96
13796;SHT30;40911;51.552;9.874;2023-03-20T13:32:16;13.39;73.07
13796;SHT30;40911;51.552;9.874;2023-03-20T13:35:00;12.85;73.20
13796;SHT30;40911;51.552;9.874;2023-03-20T13:37:29;12.88;72.71
13796;SHT30;40911;51.552;9.874;2023-03-20T13:40:03;13.08;72.83
13796;SHT30;40911;51.552;9.874;2023-03-20T13:42:29;13.22;72.91
13796;SHT30;40911;51.552;9.874;2023-03-20T13:45:03;12.88;72.11
13796;SHT30;40911;51.552;9.874;2023-03-20T13:47:27;13.01;73.02
13796;SHT30;40911;51.552;9.874;2023-03-20T13:49:54;12.79;72.95
13796;SHT30;40911;51.552;9.874;2023-03-20T13:52:19;12.72;73.24
13796;SHT30;40911;51.552;9.874;2023-03-20T13:54:52;12.95;73.18
13796;SHT30;40911;51.552;9.874;2023-03-20T13:57:30;12.76;73.26
13796;SHT30;40911;51.552;9.874;2023-03-20T14:00:00;12.76;72.71
13796;SHT30;40911;51.552;9.874;2023-03-20T14:02:33;12.74;72.78
13796;SHT30;40911;51.552;9.874;2023-03-20T14:05:02;12.74;73.74
13796;SHT30;40911;51.552;9.874;2023-03-20T14:07:29;12.63;73.32
13796;SHT30;40911;51.552;9.874;2023-03-20T14:09:53;12.46;72.94
13796;SHT30;40911;51.552;9.874;2023-03-20T14:12:15;12.44;73.52
13796;SHT30;40911;51.552;9.874;2023-03-20T14:14:45;12.34;73.12
13796;SHT30;40911;51.552;9.874;2023-03-20T14:17:16;12.26;73.25
13796;SHT30;40911;51.552;9.874;2023-03-20T14:19:39;12.22;73.73
13796;SHT30;40911;51.552;9.874;2023-03-20T14:22:00;11.88;73.12
13796;SHT30;40911;51.552;9.874;2023-03-20T14:24:23;11.92;73.51
13796;SHT30;40911;51.552;9.874;2023-03-20T14:26:48;11.95;74.10
13796;SHT30;40911;51.552;9.874;2023-03-20T14:29:30;11.77;73.49
13796;SHT30;40911;51.552;9.874;2023-03-20T14:32:02;11.92;74.02
13796;SHT30;40911;51.552;9.874;2023-03-20T14:34:24;12.05;74.16
13796;SHT30;40911;51.552;9.874;2023-03-20T14:36:55;12.12;73.66
13796;SHT30;40911;51.552;9.874;2023-03-20T14:39:23;12.02;73.05
13796;SHT30;40911;51.552;9.874;2023-03-20T14:41:57;12.19;73.18
13796;SHT30;40911;51.552;9.874;2023-03-20T14:44:26;12.36;72.96
13796;SHT30;40911;51.552;9.874;2023-03-20T14:46:51;12.38;72.29
13796;SHT30;40911;51.552;9.874;2023-03-20T14:49:32;12.33;71.65
13796;SHT30;40911;51.552;9.874;2023-03-20T14:52:00;12.26;71.54
13796;SHT30;40911;51.552;9.874;2023-03-20T14:54:26;12.40;71.30
13796;SHT30;40911;51.552;9.874;2023-03-20T14:56:49;12.38;71.50
13796;SHT30;40911;51.552;9.874;2023-03-20T14:59:13;12.41;70.97
13796;SHT30;40911;51.552;9.874;2023-03-20T15:01:46;12.36;70.63
13796;SHT30;40911;51.552;9.874;2023-03-20T15:04:19;12.20;70.64
13796;SHT30;40911;51.552;9.874;2023-03-20T15:06:48;12.38;70.96
13796;SHT30;40911;51.552;9.874;2023-03-20T15:09:12;12.20;70.13
13796;SHT30;40911;51.552;9.874;2023-03-20T15:11:33;12.30;70.46
13796;SHT30;40911;51.552;9.874;2023-03-20T15:13:57;11.95;69.00
13796;SHT30;40911;51.552;9.874;2023-03-20T15:16:26;12.13;69.74
13796;SHT30;40911;51.552;9.874;2023-03-20T15:18:50;12.00;70.05
13796;SHT30;40911;51.552;9.874;2023-03-20T15:21:13;11.86;70.03
13796;SHT30;40911;51.552;9.874;2023-03-20T15:23:40;11.82;70.07
13796;SHT30;40911;51.552;9.874;2023-03-20T15:26:02;11.75;69.29
13796;SHT30;40911;51.552;9.874;2023-03-20T15:28:25;11.69;68.44
13796;SHT30;40911;51.552;9.874;2023-03-20T15:30:49;11.74;69.27
13796;SHT30;40911;51.552;9.874;2023-03-20T15:33:16;11.78;69.90
13796;SHT30;40911;51.552;9.874;2023-03-20T15:35:39;11.72;70.05
13796;SHT30;40911;51.552;9.874;2023-03-20T15:38:04;11.75;69.96
13796;SHT30;40911;51.552;9.874;2023-03-20T15:40:32;11.62;69.83